Time;durP1;ratioP1;P1;durP2;ratioP2;P2;SDS_P1;SDS_P2;PMS_P1;PMS_P2;Temp;Humidity;BMP_temperature;BMP_pressure;BME280_temperature;BME280_humidity;BME280_pressure;Samples;Min_cycle;Max_cycle;Signal;HPM_P1;HPM_P2
2021/07/01 00:00:30;;;;;;;15.90;14.70;;;13.70;82.60;;;;;;5016382;29;20079;-71
2021/07/01 00:03:04;;;;;;;15.90;14.70;;;13.60;83.40;;;;;;5011215;29;20042;-70
2021/07/01 00:05:36;;;;;;;15.98;14.77;;;13.50;83.10;;;;;;5014019;29;20153;-69
2021/07/01 00:08:08;;;;;;;15.90;14.70;;;13.50;83.40;;;;;;5012298;29;20082;-70
2021/07/01 00:10:40;;;;;;;15.77;14.57;;;13.50;83.00;;;;;;5016483;29;21013;-70
2021/07/01 00:13:12;;;;;;;15.77;14.57;;;13.40;83.10;;;;;;5011352;29;20124;-70
2021/07/01 00:15:44;;;;;;;16.15;14.95;;;13.40;82.50;;;;;;5011501;29;20536;-70
2021/07/01 00:18:16;;;;;;;16.13;14.93;;;13.40;82.90;;;;;;5012228;29;20054;-70
2021/07/01 00:20:48;;;;;;;16.02;14.82;;;13.40;82.00;;;;;;5013726;29;20049;-70
2021/07/01 00:23:20;;;;;;;15.93;14.63;;;13.40;82.50;;;;;;5013477;29;20156;-70
2021/07/01 00:25:52;;;;;;;16.15;14.85;;;13.40;82.10;;;;;;5011787;29;20121;-72
2021/07/01 00:28:24;;;;;;;16.17;14.88;;;13.50;82.50;;;;;;5015580;29;20076;-70
2021/07/01 00:30:55;;;;;;;15.98;14.77;;;13.50;82.20;;;;;;5011758;29;20054;-71
2021/07/01 00:33:27;;;;;;;15.98;14.77;;;13.50;82.00;;;;;;5012429;29;20073;-70
2021/07/01 00:36:00;;;;;;;15.80;14.60;;;13.40;81.40;;;;;;5011040;29;20465;-70
2021/07/01 00:38:32;;;;;;;15.88;14.68;;;13.40;81.50;;;;;;5011652;29;20053;-71
2021/07/01 00:41:04;;;;;;;15.80;14.60;;;13.30;80.70;;;;;;5012372;29;20057;-71
2021/07/01 00:43:36;;;;;;;16.23;14.82;;;13.30;81.10;;;;;;5011712;29;20037;-71
2021/07/01 00:46:12;;;;;;;16.40;15.10;;;13.30;79.80;;;;;;5008845;29;20057;-70
2021/07/01 00:48:44;;;;;;;16.20;15.00;;;13.20;79.10;;;;;;5011647;29;20040;-70
2021/07/01 00:51:17;;;;;;;16.05;14.85;;;13.10;76.60;;;;;;5008975;29;20058;-70
2021/07/01 00:53:49;;;;;;;15.70;14.50;;;13.00;77.70;;;;;;5012875;29;20049;-68
2021/07/01 00:56:24;;;;;;;16.13;14.90;;;12.90;78.40;;;;;;5009356;29;20053;-70
2021/07/01 00:58:56;;;;;;;15.98;14.77;;;12.90;78.10;;;;;;5016415;29;20053;-70
2021/07/01 01:01:28;;;;;;;16.08;14.88;;;12.90;79.40;;;;;;5015291;29;20050;-71
2021/07/01 01:04:01;;;;;;;16.40;15.15;;;12.90;79.10;;;;;;5013444;29;20106;-69
2021/07/01 01:06:34;;;;;;;16.08;14.88;;;12.80;79.70;;;;;;5010825;29;20046;-70
2021/07/01 01:09:09;;;;;;;15.95;14.75;;;12.80;79.40;;;;;;5014045;29;20644;-70
2021/07/01 01:11:41;;;;;;;15.90;14.70;;;12.70;78.80;;;;;;5013752;29;20494;-70
2021/07/01 01:14:16;;;;;;;16.08;14.88;;;12.70;78.50;;;;;;5014647;29;20094;-69
2021/07/01 01:16:57;;;;;;;;;;;12.70;79.50;;;;;;5010629;29;20636;-69
2021/07/01 01:19:29;;;;;;;16.08;14.88;;;12.70;78.80;;;;;;5010537;29;19928;-69
2021/07/01 01:22:03;;;;;;;15.88;14.68;;;12.70;79.10;;;;;;5028811;29;20161;-69
2021/07/01 01:24:40;;;;;;;16.20;15.00;;;12.60;77.40;;;;;;5007779;29;20048;-70
2021/07/01 01:27:12;;;;;;;15.85;14.65;;;12.60;79.50;;;;;;5011430;29;20045;-71
2021/07/01 01:29:44;;;;;;;16.20;15.00;;;12.60;79.30;;;;;;5010325;29;20045;-70
2021/07/01 01:32:16;;;;;;;16.13;14.90;;;12.60;77.50;;;;;;5029772;29;20068;-70
2021/07/01 01:34:49;;;;;;;16.20;15.00;;;12.50;80.00;;;;;;5014523;29;20058;-70
2021/07/01 01:37:21;;;;;;;16.17;14.98;;;12.60;80.00;;;;;;5009849;29;20692;-69
2021/07/01 01:39:53;;;;;;;16.25;15.05;;;12.70;79.90;;;;;;5010467;29;20055;-70
2021/07/01 01:42:25;;;;;;;16.58;15.27;;;12.60;79.30;;;;;;5025093;29;20050;-69
2021/07/01 01:44:57;;;;;;;16.25;15.05;;;12.60;79.90;;;;;;5011917;29;20085;-71
2021/07/01 01:47:29;;;;;;;16.63;15.38;;;12.50;80.20;;;;;;5011628;29;20542;-70
2021/07/01 01:50:03;;;;;;;16.23;15.02;;;12.50;80.50;;;;;;5000902;29;20075;-72
2021/07/01 01:52:55;;;;;;;16.60;15.30;;;12.50;81.30;;;;;;5010949;29;20057;-71
2021/07/01 01:55:28;;;;;;;16.58;15.35;;;12.60;81.20;;;;;;5009969;29;20814;-70
2021/07/01 01:58:00;;;;;;;16.75;15.35;;;12.50;81.10;;;;;;5014670;29;20517;-70
2021/07/01 02:01:02;;;;;;;16.50;15.20;;;12.50;81.30;;;;;;4999436;29;20072;-70
2021/07/01 02:03:34;;;;;;;16.38;15.15;;;12.50;81.40;;;;;;5028823;29;20072;-69
2021/07/01 02:06:22;;;;;;;16.90;15.40;;;12.50;80.70;;;;;;5007833;29;20046;-69
2021/07/01 02:08:54;;;;;;;16.20;14.90;;;12.40;80.80;;;;;;5015524;29;20046;-70
2021/07/01 02:11:27;;;;;;;16.55;15.35;;;12.50;81.30;;;;;;5008207;29;20046;-69
2021/07/01 02:14:00;;;;;;;16.65;15.35;;;12.40;80.30;;;;;;5031622;29;20049;-69
2021/07/01 02:16:50;;;;;;;16.52;15.32;;;12.40;79.50;;;;;;5015178;29;20053;-70
2021/07/01 02:19:22;;;;;;;16.77;15.52;;;12.40;79.50;;;;;;5018913;29;20132;-70
2021/07/01 02:21:54;;;;;;;16.77;15.55;;;12.40;80.50;;;;;;5018316;29;20172;-70
2021/07/01 02:24:28;;;;;;;16.15;14.95;;;12.40;80.60;;;;;;5015969;29;20113;-70
2021/07/01 02:27:00;;;;;;;16.02;14.82;;;12.40;81.00;;;;;;5028025;29;20049;-70
2021/07/01 02:29:32;;;;;;;16.10;14.90;;;12.40;81.10;;;;;;5001061;29;20167;-69
2021/07/01 02:32:10;;;;;;;16.65;15.25;;;12.40;81.40;;;;;;5014599;29;20409;-69
2021/07/01 02:34:44;;;;;;;16.10;14.80;;;12.40;81.10;;;;;;5012728;29;20045;-70
2021/07/01 02:37:35;;;;;;;15.85;14.65;;;12.40;81.90;;;;;;5014538;29;20501;-70
2021/07/01 02:40:17;;;;;;;15.98;14.70;;;12.40;82.00;;;;;;5009748;29;20029;-69
2021/07/01 02:43:11;;;;;;;16.10;14.90;;;12.30;82.90;;;;;;5019442;29;20529;-70
2021/07/01 02:45:56;;;;;;;16.10;14.90;;;12.30;83.10;;;;;;5016374;29;20050;-70
2021/07/01 02:48:28;;;;;;;16.33;15.02;;;12.30;82.90;;;;;;5015654;29;20494;-69
2021/07/01 02:51:01;;;;;;;16.00;14.70;;;12.30;82.40;;;;;;5016713;29;20167;-71
2021/07/01 02:53:34;;;;;;;16.38;15.07;;;12.30;82.60;;;;;;5012877;29;20119;-70
2021/07/01 02:56:06;;;;;;;16.55;15.25;;;12.30;83.00;;;;;;5010933;29;20049;-70
2021/07/01 02:58:41;;;;;;;16.33;14.93;;;12.30;83.00;;;;;;5031609;29;20061;-70
2021/07/01 03:01:31;;;;;;;16.17;14.98;;;12.30;82.80;;;;;;5014006;29;20056;-70
2021/07/01 03:04:21;;;;;;;16.00;14.80;;;12.30;82.90;;;;;;5017193;29;20045;-70
2021/07/01 03:06:53;;;;;;;16.10;14.90;;;12.30;82.20;;;;;;5012880;29;20536;-70
2021/07/01 03:09:26;;;;;;;15.95;14.75;;;12.30;82.10;;;;;;5017068;29;20057;-71
2021/07/01 03:11:58;;;;;;;16.10;14.90;;;12.30;82.50;;;;;;5013827;29;20049;-70
2021/07/01 03:14:30;;;;;;;15.90;14.60;;;12.30;82.20;;;;;;5010034;29;20947;-69
2021/07/01 03:17:02;;;;;;;16.02;14.82;;;12.40;82.60;;;;;;5027636;29;20057;-70
2021/07/01 03:19:34;;;;;;;16.17;14.98;;;12.40;82.80;;;;;;5013250;29;20054;-69
2021/07/01 03:22:35;;;;;;;16.40;15.20;;;12.40;82.90;;;;;;4987078;29;22059;-69
2021/07/01 03:25:08;;;;;;;16.60;15.30;;;12.20;82.90;;;;;;5011299;29;20077;-69
2021/07/01 03:27:40;;;;;;;16.15;14.90;;;12.20;83.00;;;;;;5012780;29;20052;-69
2021/07/01 03:30:12;;;;;;;15.82;14.63;;;12.10;83.30;;;;;;5015337;29;20045;-69
2021/07/01 03:32:44;;;;;;;16.38;15.05;;;12.20;83.70;;;;;;5031342;29;20058;-69
2021/07/01 03:35:17;;;;;;;16.40;15.18;;;12.10;83.80;;;;;;5010423;29;20717;-69
2021/07/01 03:38:25;;;;;;;16.33;15.13;;;12.10;84.00;;;;;;4960656;29;20058;-69
2021/07/01 03:41:11;;;;;;;16.63;15.25;;;12.10;83.80;;;;;;5010541;29;20073;-69
2021/07/01 03:43:46;;;;;;;16.08;14.88;;;12.10;84.00;;;;;;5013351;29;20643;-69
2021/07/01 03:46:20;;;;;;;16.45;15.18;;;12.10;83.40;;;;;;5009527;29;20423;-68
2021/07/01 03:48:53;;;;;;;16.52;15.23;;;12.00;84.10;;;;;;5015275;29;20121;-69
2021/07/01 03:51:50;;;;;;;16.38;15.18;;;12.00;84.20;;;;;;5015884;29;20124;-70
2021/07/01 03:54:31;;;;;;;16.42;15.07;;;12.00;84.40;;;;;;5016985;29;20053;-70
2021/07/01 03:57:09;;;;;;;16.48;15.27;;;12.00;84.00;;;;;;5015072;29;20065;-69
2021/07/01 03:59:52;;;;;;;16.48;15.18;;;12.00;84.40;;;;;;5011639;29;20427;-68
2021/07/01 04:02:42;;;;;;;;;;;12.00;84.70;;;;;;5012812;29;20180;-69
2021/07/01 04:05:25;;;;;;;16.13;14.93;;;12.00;84.70;;;;;;5011446;29;20335;-69
2021/07/01 04:07:59;;;;;;;16.33;15.13;;;12.00;84.90;;;;;;5026932;29;20595;-69
2021/07/01 04:11:06;;;;;;;16.80;15.38;;;12.00;84.90;;;;;;5008863;29;20049;-69
2021/07/01 04:13:38;;;;;;;16.23;14.93;;;12.00;85.00;;;;;;5011829;29;20057;-69
2021/07/01 04:16:29;;;;;;;15.88;14.68;;;12.00;85.00;;;;;;5014304;29;20117;-70
2021/07/01 04:19:34;;;;;;;16.05;14.85;;;12.00;84.60;;;;;;4984271;29;20058;-69
2021/07/01 04:22:25;;;;;;;16.25;14.80;;;11.90;85.40;;;;;;5013599;29;20074;-69
2021/07/01 04:25:20;;;;;;;15.43;14.30;;;11.90;85.20;;;;;;5013232;29;20045;-68
2021/07/01 04:27:54;;;;;;;15.25;14.15;;;11.90;84.80;;;;;;5014113;29;20053;-71
2021/07/01 04:30:26;;;;;;;15.57;14.38;;;11.90;84.50;;;;;;5012096;29;20467;-71
2021/07/01 04:33:24;;;;;;;16.10;14.90;;;12.00;84.50;;;;;;5012369;29;20093;-70
2021/07/01 04:35:56;;;;;;;15.88;14.68;;;12.10;84.50;;;;;;5016075;29;20049;-69
2021/07/01 04:38:29;;;;;;;16.20;15.00;;;12.10;84.00;;;;;;5024182;29;20054;-69
2021/07/01 04:41:01;;;;;;;16.27;14.98;;;12.20;84.10;;;;;;5013755;29;20052;-70
2021/07/01 04:43:33;;;;;;;15.93;14.73;;;12.10;84.40;;;;;;5014077;29;20061;-70
2021/07/01 04:46:05;;;;;;;15.95;14.75;;;12.20;84.60;;;;;;5010241;29;20065;-70
2021/07/01 04:48:37;;;;;;;15.95;14.75;;;12.20;84.30;;;;;;5014039;29;20060;-70
2021/07/01 04:51:10;;;;;;;16.30;15.10;;;12.20;84.00;;;;;;5009092;29;20142;-69
2021/07/01 04:54:01;;;;;;;16.10;14.90;;;12.30;83.40;;;;;;5010811;29;20061;-70
2021/07/01 04:57:05;;;;;;;16.05;14.75;;;12.30;85.70;;;;;;4972364;29;20053;-69
2021/07/01 04:59:37;;;;;;;15.85;14.65;;;12.20;84.60;;;;;;5015786;29;20577;-69
2021/07/01 05:02:29;;;;;;;16.13;14.93;;;12.20;84.50;;;;;;5008782;29;20061;-70
2021/07/01 05:05:21;;;;;;;15.77;14.57;;;12.20;84.70;;;;;;5007187;29;20050;-69
2021/07/01 05:07:58;;;;;;;15.48;14.27;;;12.10;84.60;;;;;;5026970;29;20073;-69
2021/07/01 05:10:30;;;;;;;15.80;14.50;;;12.20;84.60;;;;;;5026269;29;20110;-69
2021/07/01 05:13:05;;;;;;;15.75;14.40;;;12.20;84.70;;;;;;5012300;29;20062;-70
2021/07/01 05:15:37;;;;;;;15.65;14.45;;;12.20;84.50;;;;;;5011195;29;20045;-71
2021/07/01 05:18:12;;;;;;;15.90;14.60;;;12.10;84.60;;;;;;5024813;29;20069;-69
2021/07/01 05:20:46;;;;;;;15.90;14.70;;;12.10;84.40;;;;;;5014912;29;20054;-69
2021/07/01 05:23:37;;;;;;;15.90;14.70;;;12.00;84.80;;;;;;5014155;29;20177;-70
2021/07/01 05:26:27;;;;;;;;;;;12.00;84.70;;;;;;5012732;29;20041;-70
2021/07/01 05:29:18;;;;;;;15.90;14.70;;;12.00;84.70;;;;;;5011681;29;19920;-70
2021/07/01 05:32:28;;;;;;;;;;;12.00;85.00;;;;;;5011580;29;20558;-70
2021/07/01 05:35:26;;;;;;;16.23;15.00;;;12.10;85.00;;;;;;5007864;29;19931;-70
2021/07/01 05:38:00;;;;;;;16.30;15.00;;;12.10;85.30;;;;;;5012417;29;20136;-69
2021/07/01 05:40:34;;;;;;;16.27;14.93;;;12.00;85.60;;;;;;5013460;29;20538;-70
2021/07/01 05:43:08;;;;;;;16.23;15.02;;;12.10;86.20;;;;;;5012567;29;20065;-70
2021/07/01 05:45:40;;;;;;;16.30;15.00;;;12.10;86.30;;;;;;5012201;29;20118;-69
2021/07/01 05:48:12;;;;;;;16.13;14.93;;;12.10;86.60;;;;;;5013154;29;20101;-69
2021/07/01 05:50:51;;;;;;;16.40;15.10;;;12.10;86.10;;;;;;5013980;29;20049;-69
2021/07/01 05:53:28;;;;;;;16.15;14.85;;;12.00;85.80;;;;;;5012790;29;20046;-69
2021/07/01 05:56:01;;;;;;;16.00;14.80;;;12.00;86.30;;;;;;5016350;29;20066;-69
2021/07/01 05:58:32;;;;;;;16.33;15.02;;;12.10;86.20;;;;;;5014872;29;20511;-69
2021/07/01 06:01:05;;;;;;;16.15;14.85;;;12.10;86.20;;;;;;4998160;29;20045;-68
2021/07/01 06:03:37;;;;;;;15.88;14.63;;;12.10;86.30;;;;;;5014094;29;20041;-69
2021/07/01 06:06:32;;;;;;;16.30;14.98;;;12.10;86.30;;;;;;5014674;29;20639;-68
2021/07/01 06:09:27;;;;;;;16.30;14.90;;;12.10;85.50;;;;;;5014991;29;20145;-69
2021/07/01 06:12:00;;;;;;;16.35;15.05;;;12.10;85.40;;;;;;5013129;29;20045;-69
2021/07/01 06:14:32;;;;;;;16.63;15.32;;;12.10;85.60;;;;;;5017116;29;20041;-69
2021/07/01 06:17:06;;;;;;;16.40;15.00;;;12.10;85.30;;;;;;5015833;29;20054;-68
2021/07/01 06:19:39;;;;;;;16.52;15.23;;;12.10;85.40;;;;;;5017957;29;20055;-69
2021/07/01 06:22:12;;;;;;;16.02;14.75;;;12.10;84.60;;;;;;5016292;29;20223;-68
2021/07/01 06:24:44;;;;;;;16.70;15.40;;;12.10;85.00;;;;;;5012848;29;20121;-70
2021/07/01 06:27:21;;;;;;;16.10;14.90;;;12.20;85.00;;;;;;5013113;29;20552;-71
2021/07/01 06:29:53;;;;;;;16.35;14.95;;;12.10;84.50;;;;;;5021016;29;20458;-69
2021/07/01 06:32:25;;;;;;;16.17;14.98;;;12.20;84.60;;;;;;5015066;29;20079;-69
2021/07/01 06:34:57;;;;;;;16.13;14.93;;;12.20;85.00;;;;;;5014164;29;20077;-69
2021/07/01 06:37:33;;;;;;;16.02;14.82;;;12.20;84.70;;;;;;5016358;29;20069;-69
2021/07/01 06:40:47;;;;;;;16.08;14.77;;;12.20;84.50;;;;;;4950992;29;20515;-70
2021/07/01 06:43:39;;;;;;;16.55;15.25;;;12.20;84.40;;;;;;4957263;29;20054;-70
2021/07/01 06:46:32;;;;;;;16.17;14.98;;;12.20;84.30;;;;;;5004483;29;20182;-70
2021/07/01 06:49:29;;;;;;;16.15;14.95;;;12.30;84.50;;;;;;5018577;29;20133;-69
2021/07/01 06:52:43;;;;;;;16.55;15.15;;;12.30;84.00;;;;;;4938597;29;20051;-69
2021/07/01 06:55:34;;;;;;;16.17;14.98;;;12.30;84.20;;;;;;4936938;29;20095;-69
2021/07/01 06:58:21;;;;;;;14.40;13.30;;;12.30;84.70;;;;;;4997644;29;20050;-69
2021/07/01 07:00:54;;;;;;;14.88;13.77;;;12.40;84.80;;;;;;5013553;29;20079;-69
2021/07/01 07:03:26;;;;;;;14.88;13.77;;;12.40;84.90;;;;;;5015517;29;20097;-70
2021/07/01 07:06:01;;;;;;;14.85;13.75;;;12.50;85.00;;;;;;5011903;29;20102;-69
2021/07/01 07:08:33;;;;;;;15.45;14.15;;;12.40;84.60;;;;;;5019598;29;20077;-70
2021/07/01 07:11:05;;;;;;;15.02;13.93;;;12.50;84.40;;;;;;5012295;29;20061;-70
2021/07/01 07:13:37;;;;;;;15.30;14.20;;;12.40;84.60;;;;;;5017291;29;20134;-69
2021/07/01 07:16:10;;;;;;;15.10;14.00;;;12.40;84.70;;;;;;5013699;29;20083;-70
2021/07/01 07:18:44;;;;;;;14.90;13.80;;;12.40;84.70;;;;;;5014986;29;20056;-69
2021/07/01 07:21:19;;;;;;;14.90;13.80;;;12.40;84.20;;;;;;5012294;29;20410;-69
2021/07/01 07:23:54;;;;;;;15.02;13.82;;;12.40;84.10;;;;;;5012597;29;20128;-71
2021/07/01 07:26:26;;;;;;;15.00;13.90;;;12.40;84.80;;;;;;5012036;29;20038;-69
2021/07/01 07:28:57;;;;;;;15.07;13.98;;;12.50;84.20;;;;;;5014463;29;20527;-69
2021/07/01 07:31:31;;;;;;;14.98;13.88;;;12.50;84.50;;;;;;5011614;29;20744;-70
2021/07/01 07:34:06;;;;;;;15.20;14.10;;;12.60;85.10;;;;;;5014178;29;20049;-69
2021/07/01 07:36:38;;;;;;;15.40;14.20;;;12.60;84.30;;;;;;5013431;29;20152;-70
2021/07/01 07:39:10;;;;;;;15.23;14.13;;;12.60;85.00;;;;;;5033064;29;20052;-69
2021/07/01 07:41:42;;;;;;;14.85;13.75;;;12.60;84.90;;;;;;5014495;29;20633;-70
2021/07/01 07:44:15;;;;;;;14.70;13.60;;;12.70;85.50;;;;;;5018276;29;20355;-70
2021/07/01 07:46:50;;;;;;;15.07;13.95;;;12.70;84.50;;;;;;5012473;29;20634;-70
2021/07/01 07:49:22;;;;;;;15.20;14.10;;;12.70;84.60;;;;;;5012120;29;20124;-69
2021/07/01 07:51:54;;;;;;;15.05;13.95;;;12.70;84.50;;;;;;5011632;29;20140;-70
2021/07/01 07:54:29;;;;;;;15.00;13.90;;;12.80;84.30;;;;;;5012881;29;20133;-71
2021/07/01 07:57:02;;;;;;;15.30;14.20;;;12.70;83.40;;;;;;5011943;29;20054;-70
2021/07/01 07:59:37;;;;;;;14.93;13.82;;;12.70;84.30;;;;;;5014514;29;20054;-70
2021/07/01 08:02:33;;;;;;;15.70;14.50;;;12.80;84.50;;;;;;5016748;29;20136;-70
2021/07/01 08:05:06;;;;;;;15.48;14.38;;;12.80;83.70;;;;;;5017196;29;20042;-70
2021/07/01 08:07:40;;;;;;;15.05;13.95;;;12.80;84.00;;;;;;5012958;29;20474;-70
2021/07/01 08:10:15;;;;;;;15.18;13.98;;;12.80;83.50;;;;;;5016777;29;20046;-70
2021/07/01 08:12:52;;;;;;;15.07;13.98;;;12.90;83.60;;;;;;5013438;29;20536;-71
2021/07/01 08:15:24;;;;;;;14.90;13.80;;;12.90;84.30;;;;;;5011796;29;20049;-70
2021/07/01 08:17:56;;;;;;;15.00;13.90;;;12.90;84.60;;;;;;5013714;29;20054;-70
2021/07/01 08:20:28;;;;;;;15.50;14.32;;;13.00;84.50;;;;;;5013392;29;20123;-70
2021/07/01 08:23:01;;;;;;;15.73;14.40;;;13.10;84.50;;;;;;5014551;29;20514;-70
2021/07/01 08:25:33;;;;;;;15.65;14.45;;;13.10;84.40;;;;;;5016350;29;20113;-70
2021/07/01 08:28:05;;;;;;;15.90;14.70;;;13.10;84.40;;;;;;5012730;29;20133;-70
2021/07/01 08:30:36;;;;;;;15.77;14.50;;;13.10;84.50;;;;;;5018619;29;20089;-70
2021/07/01 08:33:08;;;;;;;15.77;14.57;;;13.20;85.10;;;;;;5027955;29;20054;-70
2021/07/01 08:35:40;;;;;;;16.02;14.82;;;13.20;84.70;;;;;;5015645;29;20080;-69
2021/07/01 08:38:12;;;;;;;15.75;14.55;;;13.20;84.90;;;;;;5016444;29;20141;-71
2021/07/01 08:40:46;;;;;;;15.98;14.77;;;13.30;84.70;;;;;;5010500;29;20053;-70
2021/07/01 08:43:21;;;;;;;15.75;14.55;;;13.30;84.80;;;;;;5011631;29;20459;-70
2021/07/01 08:46:15;;;;;;;16.00;14.80;;;13.30;85.10;;;;;;5011096;29;20046;-71
2021/07/01 08:49:08;;;;;;;15.85;14.65;;;13.40;84.30;;;;;;5010451;29;20042;-71
2021/07/01 08:51:43;;;;;;;15.75;14.55;;;13.30;85.00;;;;;;5013909;29;20053;-70
2021/07/01 08:54:24;;;;;;;15.90;14.70;;;13.40;84.30;;;;;;5013964;29;20069;-70
2021/07/01 08:56:57;;;;;;;16.13;14.93;;;13.40;84.80;;;;;;5011983;29;20049;-71
2021/07/01 09:00:00;;;;;;;16.00;14.70;;;13.40;84.90;;;;;;5011456;29;20125;-70
2021/07/01 09:02:37;;;;;;;15.85;14.65;;;13.40;84.70;;;;;;5005722;29;20046;-71
2021/07/01 09:05:16;;;;;;;15.85;14.65;;;13.40;84.50;;;;;;5010676;29;20570;-69
2021/07/01 09:07:57;;;;;;;15.60;14.40;;;13.20;84.80;;;;;;5014622;29;20502;-70
2021/07/01 09:10:32;;;;;;;15.48;14.30;;;13.20;84.70;;;;;;5014035;29;20111;-70
2021/07/01 09:13:08;;;;;;;15.75;14.55;;;13.20;85.00;;;;;;5012843;29;20120;-70
2021/07/01 09:15:41;;;;;;;15.27;14.07;;;13.20;84.90;;;;;;5011607;29;20121;-70
2021/07/01 09:18:15;;;;;;;15.20;14.10;;;13.20;84.40;;;;;;5012850;29;20045;-70
2021/07/01 09:20:49;;;;;;;15.45;14.35;;;13.10;84.20;;;;;;5013274;29;20514;-70
2021/07/01 09:23:22;;;;;;;15.30;14.20;;;13.00;84.50;;;;;;5012357;29;20120;-70
2021/07/01 09:25:59;;;;;;;15.57;14.38;;;13.00;84.50;;;;;;5010875;29;20073;-71
2021/07/01 09:28:31;;;;;;;15.75;14.55;;;13.10;84.80;;;;;;5013573;29;20053;-71
2021/07/01 09:31:05;;;;;;;15.27;14.18;;;13.10;83.80;;;;;;5010594;29;20132;-70
2021/07/01 09:33:38;;;;;;;15.73;14.43;;;13.10;84.50;;;;;;5012701;29;20050;-70
2021/07/01 09:36:12;;;;;;;15.40;14.30;;;13.20;84.80;;;;;;5009981;29;20637;-70
2021/07/01 09:38:45;;;;;;;15.70;14.50;;;13.20;84.50;;;;;;5011004;29;20161;-70
2021/07/01 09:41:22;;;;;;;15.90;14.70;;;13.20;84.20;;;;;;5012686;29;20057;-70
2021/07/01 09:43:55;;;;;;;15.52;14.32;;;13.30;84.70;;;;;;5025671;29;20100;-70
2021/07/01 09:46:29;;;;;;;15.50;14.40;;;13.40;84.70;;;;;;5012907;29;20132;-70
2021/07/01 09:49:06;;;;;;;15.68;14.48;;;13.50;84.70;;;;;;5028859;29;20485;-70
2021/07/01 09:51:38;;;;;;;16.95;15.55;;;13.60;85.70;;;;;;5010477;29;20133;-70
2021/07/01 09:54:14;;;;;;;16.13;14.93;;;13.70;85.20;;;;;;5012796;29;20106;-70
2021/07/01 09:56:52;;;;;;;16.40;15.20;;;13.80;84.80;;;;;;5016102;29;20525;-71
2021/07/01 09:59:29;;;;;;;16.45;15.25;;;13.70;85.00;;;;;;5012322;29;20140;-70
2021/07/01 10:02:23;;;;;;;15.77;14.57;;;13.70;84.70;;;;;;5012474;29;20122;-71
2021/07/01 10:04:56;;;;;;;16.20;15.00;;;13.70;84.90;;;;;;5008920;29;20046;-70
2021/07/01 10:07:28;;;;;;;16.15;14.95;;;13.80;85.00;;;;;;5010429;29;20156;-70
2021/07/01 10:10:12;;;;;;;15.90;14.70;;;13.80;85.10;;;;;;5012814;29;20125;-70
2021/07/01 10:12:52;;;;;;;15.95;14.73;;;13.80;84.50;;;;;;5012175;29;20113;-69
2021/07/01 10:15:31;;;;;;;16.33;15.00;;;13.90;85.20;;;;;;5009037;29;20128;-69
2021/07/01 10:18:21;;;;;;;16.38;15.18;;;14.00;84.70;;;;;;5010283;29;20134;-69
2021/07/01 10:21:00;;;;;;;16.20;15.00;;;14.10;83.90;;;;;;5008752;29;20053;-69
2021/07/01 10:23:33;;;;;;;16.70;15.40;;;14.10;84.30;;;;;;5016221;29;20049;-70
2021/07/01 10:26:20;;;;;;;16.35;15.07;;;14.20;84.50;;;;;;5008182;29;20057;-69
2021/07/01 10:29:00;;;;;;;16.80;15.40;;;14.30;85.00;;;;;;5015323;29;20061;-70
2021/07/01 10:31:56;;;;;;;16.17;14.98;;;14.40;83.30;;;;;;5010060;29;20656;-68
2021/07/01 10:34:30;;;;;;;16.00;14.77;;;14.40;83.90;;;;;;5016993;29;20041;-70
2021/07/01 10:37:21;;;;;;;16.70;15.50;;;14.40;84.40;;;;;;5013899;29;20065;-69
2021/07/01 10:39:53;;;;;;;16.80;15.50;;;14.50;84.70;;;;;;5019584;29;20581;-70
2021/07/01 10:42:25;;;;;;;16.52;15.23;;;14.60;84.70;;;;;;5014586;29;20122;-70
2021/07/01 10:45:17;;;;;;;16.77;15.48;;;14.70;84.60;;;;;;5013424;29;20132;-69
2021/07/01 10:47:50;;;;;;;16.50;15.27;;;14.90;84.20;;;;;;5017141;29;20684;-69
2021/07/01 10:50:26;;;;;;;16.65;15.38;;;14.90;83.90;;;;;;5014981;29;20236;-70
2021/07/01 10:52:58;;;;;;;16.95;15.60;;;14.90;84.20;;;;;;5016413;29;20568;-69
2021/07/01 10:55:40;;;;;;;17.45;16.05;;;15.00;84.80;;;;;;5001118;29;20514;-69
2021/07/01 10:58:24;;;;;;;17.20;15.90;;;15.10;84.00;;;;;;5013301;29;20065;-70
2021/07/01 11:01:24;;;;;;;17.17;15.77;;;15.20;84.40;;;;;;5013767;29;20049;-70
2021/07/01 11:04:05;;;;;;;17.13;15.77;;;15.20;83.70;;;;;;5017738;29;20056;-69
2021/07/01 11:06:42;;;;;;;16.90;15.60;;;15.20;84.50;;;;;;5014814;29;20050;-70
2021/07/01 11:09:16;;;;;;;16.83;15.52;;;15.10;84.20;;;;;;5013552;29;20510;-69
2021/07/01 11:11:59;;;;;;;16.90;15.60;;;15.10;83.80;;;;;;5014589;29;20090;-71
2021/07/01 11:14:41;;;;;;;17.05;15.75;;;15.20;84.50;;;;;;5012633;29;20038;-69
2021/07/01 11:17:13;;;;;;;;;;;15.30;84.60;;;;;;5014261;29;20522;-71
2021/07/01 11:19:46;;;;;;;17.35;16.05;;;15.50;84.60;;;;;;5014768;29;20035;-70
2021/07/01 11:22:18;;;;;;;17.52;16.13;;;15.50;84.40;;;;;;5014334;29;20054;-69
2021/07/01 11:24:50;;;;;;;17.80;16.25;;;15.60;83.80;;;;;;5016801;29;20052;-69
2021/07/01 11:27:23;;;;;;;17.67;16.27;;;15.60;82.70;;;;;;5013540;29;20230;-70
2021/07/01 11:29:55;;;;;;;17.52;16.23;;;15.60;83.30;;;;;;5013092;29;20459;-69
2021/07/01 11:32:28;;;;;;;17.17;15.88;;;15.80;83.20;;;;;;5013855;29;20070;-70
2021/07/01 11:35:00;;;;;;;18.10;16.67;;;15.80;83.00;;;;;;5017589;29;20057;-70
2021/07/01 11:37:42;;;;;;;18.95;17.35;;;15.80;83.60;;;;;;5013213;29;20758;-69
2021/07/01 11:40:21;;;;;;;18.15;16.75;;;15.80;82.20;;;;;;5013980;29;20707;-70
2021/07/01 11:42:54;;;;;;;19.20;17.70;;;15.80;83.10;;;;;;5017214;29;20518;-71
2021/07/01 11:45:26;;;;;;;19.00;17.60;;;15.80;81.50;;;;;;5011550;29;20065;-70
2021/07/01 11:48:00;;;;;;;18.75;17.30;;;15.90;81.80;;;;;;5014039;29;20546;-70
2021/07/01 11:50:32;;;;;;;19.35;17.77;;;16.10;82.80;;;;;;5012995;29;20050;-70
2021/07/01 11:53:05;;;;;;;18.58;17.15;;;16.30;82.40;;;;;;5015398;29;20460;-71
2021/07/01 11:55:37;;;;;;;18.60;17.20;;;16.40;80.10;;;;;;5010305;29;20053;-70
2021/07/01 11:58:11;;;;;;;19.00;17.50;;;16.60;81.60;;;;;;5015257;29;20079;-70
2021/07/01 12:00:43;;;;;;;19.10;17.60;;;16.70;80.50;;;;;;5012969;29;20540;-70
2021/07/01 12:03:16;;;;;;;19.25;17.75;;;16.80;80.70;;;;;;5031396;29;20182;-70
2021/07/01 12:05:50;;;;;;;19.15;17.65;;;16.90;82.00;;;;;;5011202;29;20210;-71
2021/07/01 12:08:23;;;;;;;19.25;17.75;;;17.00;78.50;;;;;;5010889;29;20162;-70
2021/07/01 12:11:05;;;;;;;19.25;17.75;;;17.10;77.70;;;;;;5030702;29;20079;-70
2021/07/01 12:13:38;;;;;;;19.10;17.50;;;17.10;79.20;;;;;;5013215;29;20067;-71
2021/07/01 12:16:17;;;;;;;19.33;17.73;;;17.00;77.20;;;;;;5012257;29;20065;-70
2021/07/01 12:18:52;;;;;;;19.00;17.50;;;17.00;77.90;;;;;;5028262;29;20045;-70
2021/07/01 12:21:30;;;;;;;19.65;18.10;;;16.90;77.30;;;;;;5013640;29;20483;-70
2021/07/01 12:24:04;;;;;;;19.08;17.52;;;17.10;78.90;;;;;;5014815;29;20077;-70
2021/07/01 12:26:43;;;;;;;19.60;18.10;;;17.10;80.10;;;;;;5012008;29;20934;-71
2021/07/01 12:29:39;;;;;;;20.13;18.52;;;17.20;79.20;;;;;;5013670;29;20136;-70
2021/07/01 12:32:25;;;;;;;20.02;18.38;;;17.30;79.10;;;;;;5013076;29;20558;-70
2021/07/01 12:34:57;;;;;;;19.65;18.15;;;17.50;77.40;;;;;;5016986;29;20533;-70
2021/07/01 12:37:29;;;;;;;19.02;17.52;;;17.60;77.20;;;;;;5011564;29;20132;-69
2021/07/01 12:40:27;;;;;;;19.83;18.23;;;17.50;77.20;;;;;;5011400;29;20061;-69
2021/07/01 12:42:59;;;;;;;19.90;18.40;;;17.40;76.60;;;;;;5015617;29;20061;-70
2021/07/01 12:45:34;;;;;;;19.92;18.33;;;17.40;77.30;;;;;;5009490;29;20133;-69
2021/07/01 12:48:39;;;;;;;19.85;18.25;;;17.40;76.00;;;;;;5011121;29;20050;-70
2021/07/01 12:51:46;;;;;;;20.05;18.55;;;17.30;77.00;;;;;;5001019;29;20050;-68
2021/07/01 12:54:24;;;;;;;20.40;18.80;;;17.20;76.40;;;;;;5013824;29;20058;-70
2021/07/01 12:56:56;;;;;;;20.27;18.67;;;17.10;77.00;;;;;;5009469;29;20136;-69
2021/07/01 12:59:37;;;;;;;20.15;18.55;;;17.00;77.00;;;;;;5012182;29;20049;-70
2021/07/01 13:02:12;;;;;;;20.58;18.88;;;16.90;76.20;;;;;;5012294;29;20057;-70
2021/07/01 13:04:49;;;;;;;20.48;18.88;;;17.00;76.20;;;;;;5013315;29;20153;-69
2021/07/01 13:07:28;;;;;;;20.42;18.83;;;17.10;73.30;;;;;;5009769;29;20089;-70
2021/07/01 13:10:09;;;;;;;19.90;18.33;;;17.20;73.50;;;;;;5010683;29;20046;-70
2021/07/01 13:12:44;;;;;;;19.92;18.35;;;17.30;75.70;;;;;;5028385;29;20061;-71
2021/07/01 13:15:31;;;;;;;19.27;17.77;;;17.40;74.90;;;;;;5011278;29;20052;-68
2021/07/01 13:18:03;;;;;;;19.67;18.17;;;17.40;74.10;;;;;;5011574;29;20049;-69
2021/07/01 13:20:36;;;;;;;19.50;18.00;;;17.50;74.80;;;;;;5011122;29;20059;-69